Weather observations for the past three days for
Saratoga WY
Metric (Imperial)
Date Time (mdt) Wind (kph) Vis. (km) Weather Sky Cond. Temperature (ºC) Relative Humidity Wind Chill (°C) Heat Index (°C) Pressure Precipitation (cm)
Air Dwpt 6 hour altimeter (cm) sea level (mb) 1 hr 3 hr 6 hr
Max. Min.
04 16:55 S 28 G 43 16.09 Fair CLR 28 -3 13% 27 76.61 0.0
04 16:35 S 22 G 33 16.09 Fair CLR 28 -2 14% 27 76.61 0.0
04 16:15 SW 20 G 33 16.09 Fair CLR 28 -1 15% 27 76.58 0.0
04 15:55 S 19 G 31 16.09 Fair CLR 28 -1 15% 27 76.61 0.0
04 15:35 S 22 G 41 16.09 Partly Cloudy SCT100 28 -1 15% 27 76.61 0.0
04 15:15 S 22 G 33 16.09 Partly Cloudy SCT100 27 0 17% 26 76.58 0.0
04 14:55 S 17 G 28 16.09 Partly Cloudy SCT100 27 0 17% 26 76.61 0.0
04 14:35 S 11 G 33 16.09 Partly Cloudy SCT095 27 0 17% 26 76.61 0.0
04 14:15 SW 28 G 39 16.09 Partly Cloudy SCT095 27 0 17% 26 76.61 0.0
04 13:55 SW 22 G 37 16.09 Partly Cloudy SCT090 27 0 17% 26 76.63 0.0
04 13:35 SW 22 G 35 16.09 Fair CLR 27 1 18% 26 76.63 0.0
04 13:15 SW 28 G 44 16.09 Fair CLR 27 1 18% 26 76.63 0.0
04 12:55 S 30 G 43 16.09 Partly Cloudy SCT085 27 0 17% 26 76.63 0.0
04 12:30 SW 22 G 39 16.09 Fair CLR 27 1 18% 26 76.66 0.0
04 12:15 SW 28 G 43 16.09 Partly Cloudy SCT080 26 1 20% 25 76.68 0.0
04 11:55 SW 26 G 31 16.09 Partly Cloudy SCT080 25 2 22% 25 76.68 0.0
04 11:35 SW 22 G 37 16.09 Partly Cloudy SCT080 25 2 22% 25 76.68 0.0
04 11:15 SW 28 G 41 16.09 Fair CLR 25 1 21% 25 76.68 0.0
04 10:55 SW 37 G 48 16.09 Partly Cloudy and Breezy SCT080 23 1 23% 76.68 0.0
04 10:35 SW 37 G 46 16.09 Partly Cloudy and Breezy SCT080 23 1 23% 76.68 0.0
04 10:15 SW 41 G 48 16.09 Partly Cloudy and Breezy SCT080 23 1 23% 76.68 0.0
04 09:55 SW 30 G 50 16.09 Partly Cloudy SCT080 23 1 23% 76.68 0.0
04 09:35 S 20 G 28 16.09 Partly Cloudy SCT080 23 1 23% 76.68 0.0
04 09:15 S 15 16.09 NULL NULL 23 1 23% 76.68 0.0
04 08:55 E 13 16.09 NULL NULL 20 2 30% 76.68 0.0
04 08:35 E 13 16.09 NULL NULL 20 1 28% 76.66 0.0
04 08:15 SE 20 G 30 16.09 NULL NULL 17 0 32% 76.66 0.0
04 07:55 SE 24 16.09 NULL NULL 16 0 34% 76.63 0.0
04 07:35 SE 20 G 28 16.09 NULL NULL 15 0 36% 76.63 0.0
04 07:15 SE 15 16.09 NULL NULL 14 0 39% 76.61 0.0
04 06:55 SE 22 16.09 NULL NULL 12 0 44% 76.61 0.0
04 06:35 SE 9 16.09 NULL NULL 13 0 41% 76.56 0.0
04 06:15 SE 19 16.09 NULL NULL 14 0 39% 76.56 0.0
04 05:55 SE 9 16.09 NULL NULL 13 0 41% 76.56 0.0
04 05:35 SE 11 16.09 NULL NULL 13 0 41% 76.53 0.0
04 05:15 SE 15 16.09 NULL NULL 12 0 44% 76.53 0.0
04 04:55 SE 15 16.09 NULL NULL 12 0 44% 76.56 0.0
04 04:35 SE 15 16.09 NULL NULL 12 0 44% 76.56 0.0
04 04:15 SE 9 16.09 NULL NULL 11 0 47% 76.53 0.0
04 03:55 E 11 16.09 NULL NULL 11 0 47% 76.53 0.0
04 03:35 SE 13 16.09 NULL NULL 12 -1 41% 76.53 0.0
04 03:15 SE 11 16.09 NULL NULL 12 -1 41% 76.53 0.0
04 02:55 SE 15 16.09 NULL NULL 13 -1 38% 76.5 0.0
04 02:35 SE 13 16.09 NULL NULL 14 -1 36% 76.53 0.0
04 02:15 SE 17 16.09 NULL NULL 13 -1 38% 76.56 0.0
04 01:55 SE 11 16.09 NULL NULL 13 0 41% 76.56 0.0
04 01:10 SE 15 16.09 NULL NULL 13 -1 38% 76.58 0.0
04 00:55 S 11 16.09 NULL NULL 11 -1 44% 76.58 0.0
04 00:35 SE 15 16.09 NULL NULL 13 -1 38% 76.58 0.0
04 00:15 SE 17 16.09 NULL NULL 14 -1 36% 76.56 0.0
03 23:55 SE 19 16.09 NULL NULL 13 0 41% 76.56 0.0
03 23:35 SE 11 16.09 NULL NULL 12 0 44% 76.56 0.0
03 23:15 SE 15 16.09 NULL NULL 14 -2 33% 76.56 0.0
03 22:55 S 17 16.09 NULL NULL 13 -2 36% 76.53 0.0
03 22:35 S 13 16.09 NULL NULL 13 -2 36% 76.5 0.0
03 22:15 S 15 16.09 NULL NULL 13 -1 38% 76.53 0.0
03 21:55 S 13 16.09 NULL NULL 16 -2 29% 76.53 0.0
03 21:35 S 19 16.09 NULL NULL 16 -2 29% 76.53 0.0
03 21:10 S 17 16.09 Fair CLR 16 -2 29% 76.53 0.0
03 20:55 S 19 16.09 Fair CLR 16 -2 29% 76.53 0.0
03 20:35 S 15 16.09 Fair CLR 17 -2 27% 76.5 0.0
03 20:15 S 15 16.09 Fair CLR 19 -3 22% 76.5 0.0
03 19:55 SW 17 16.09 Fair CLR 20 -3 21% 76.5 0.0
03 19:35 S 13 16.09 Fair CLR 21 -3 20% 76.48 0.0
03 19:15 SW 17 16.09 Fair CLR 23 -5 15% 76.48 0.0
03 18:55 S 20 G 35 16.09 Fair CLR 23 -5 15% 76.48 0.0
03 18:35 S 24 G 35 16.09 Fair CLR 25 -5 13% 25 76.48 0.0
03 18:15 SW 26 G 35 16.09 Fair CLR 25 -5 13% 25 76.48 0.0
03 17:55 S 22 G 35 16.09 Fair CLR 25 -5 13% 25 76.48 0.0
03 17:35 SW 28 G 39 16.09 Fair CLR 26 -5 12% 25 76.48 0.0
03 17:15 S 33 G 46 16.09 Fair and Breezy CLR 26 -4 13% 25 76.48 0.0
03 16:55 S 28 G 43 16.09 Fair CLR 26 -4 13% 25 76.5 0.0
03 16:30 S 30 G 46 16.09 Fair CLR 26 -4 13% 25 76.5 0.0
03 16:15 S 28 G 39 16.09 Fair CLR 26 -5 12% 25 76.5 0.0
03 15:55 SW 28 G 44 16.09 Fair CLR 26 -4 13% 25 76.5 0.0
03 15:35 SW 22 G 39 16.09 Fair CLR 26 -3 15% 25 76.53 0.0
03 15:15 SW 26 G 37 16.09 Fair CLR 26 -4 13% 25 76.53 0.0
03 14:55 SW 31 G 41 16.09 Fair CLR 25 -5 13% 25 76.53 0.0
03 14:35 S 22 G 39 16.09 Fair CLR 26 -4 13% 25 76.56 0.0
03 14:15 SW 30 G 37 16.09 Fair CLR 26 -3 15% 25 76.56 0.0
03 13:50 S 28 G 35 16.09 Fair CLR 25 -4 14% 25 76.58 0.0
03 13:35 SW 28 G 37 16.09 Fair CLR 25 -5 13% 25 76.58 0.0
03 13:15 SW 28 G 43 16.09 Fair CLR 25 -5 13% 25 76.61 0.0
03 12:55 SW 30 G 46 16.09 Fair CLR 24 -6 13% 24 76.61 0.0
03 12:35 SW 22 G 44 16.09 Fair CLR 24 -6 13% 24 76.63 0.0
03 12:15 SW 31 G 44 16.09 Fair CLR 24 -6 13% 24 76.63 0.0
03 11:55 SW 37 G 48 16.09 Fair and Breezy CLR 23 -5 15% 76.63 0.0
03 11:35 SW 28 G 43 16.09 Fair CLR 23 -3 17% 76.66 0.0
03 11:15 SW 30 G 41 16.09 Fair CLR 22 -4 17% 76.66 0.0
03 10:55 SW 30 G 35 16.09 Fair CLR 22 -3 19% 76.63 0.0
03 10:35 SW 22 G 39 16.09 Fair CLR 21 -3 20% 76.63 0.0
03 10:15 SW 31 G 41 16.09 Fair CLR 21 -3 20% 76.63 0.0
03 09:55 SW 31 G 43 16.09 Fair CLR 21 -3 20% 76.61 0.0
03 09:35 SW 30 G 43 16.09 Fair CLR 20 -1 24% 76.61 0.0
03 09:15 SW 30 G 39 16.09 Fair CLR 20 0 26% 76.61 0.0
03 08:55 SW 31 G 41 16.09 Fair CLR 20 1 28% 76.61 0.0
03 08:35 SW 15 16.09 Fair CLR 18 3 37% 76.61 0.0
03 08:15 S 9 16.09 NULL NULL 18 4 40% 76.61 0.0
03 07:55 Calm 16.09 NULL NULL 16 5 48% 76.61 0.0
03 07:35 S 11 16.09 Fair CLR 15 5 51% 76.56 0.0
03 07:15 S 13 16.09 Fair CLR 13 5 59% 76.56 0.0
03 06:55 SE 17 16.09 Fair CLR 12 5 63% 76.53 0.0
03 06:35 SE 19 16.09 Fair CLR 12 5 63% 76.5 0.0
03 06:15 S 19 16.09 Fair CLR 12 5 63% 76.5 0.0
03 05:55 SE 19 16.09 Fair CLR 12 5 63% 76.5 0.0
03 05:35 S 17 16.09 Fair CLR 12 5 63% 76.5 0.0
03 05:15 SE 19 16.09 Fair CLR 11 5 67% 76.5 0.0
03 04:55 SE 17 16.09 Fair CLR 12 5 63% 76.5 0.0
03 04:35 SE 19 16.09 Fair CLR 12 5 63% 76.5 0.0
03 04:15 SE 17 16.09 Fair CLR 12 5 63% 76.5 0.0
03 03:55 S 19 16.09 Fair CLR 12 5 63% 76.5 0.0
03 03:35 SE 24 16.09 Fair CLR 12 5 63% 76.5 0.0
03 03:15 S 22 G 33 16.09 Fair CLR 13 5 59% 76.5 0.0
03 02:55 S 17 G 31 16.09 Fair CLR 12 5 63% 76.5 0.0
03 02:35 S 20 16.09 Fair CLR 12 6 67% 76.48 0.0
03 01:55 SE 20 16.09 Fair CLR 13 6 63% 76.5 0.0
03 01:35 S 17 16.09 Fair CLR 12 7 72% 76.53 0.0
03 01:15 Calm 16.09 Fair CLR 10 7 82% 76.56 0.0
03 00:55 Calm 16.09 Fair CLR 11 7 77% 76.56 0.0
03 00:35 S 13 16.09 Fair CLR 11 7 77% 76.56 0.0
03 00:10 S 15 16.09 Partly Cloudy SCT075 SCT085 SCT110 11 7 77% 76.58 0.0
02 23:55 S 6 16.09 Fair CLR 12 7 72% 76.56 0.0
02 23:35 S 9 16.09 Light Drizzle NULL 13 8 72% 76.58 0.0
02 23:15 W 13 G 28 16.09 Thunderstorm Light Rain OVC075 16 6 52% 76.61 0.0
02 22:55 S 11 16.09 Thunderstorm in Vicinity SCT075 SCT090 15 5 51% 76.56 0.0
02 22:35 SE 17 16.09 Fair CLR 15 5 51% 76.58 0.0
02 22:15 S 13 16.09 Fair CLR 16 4 45% 76.58 0.0
02 21:55 SE 13 16.09 Fair CLR 15 4 48% 76.56 0.0
02 21:35 SE 15 16.09 Fair CLR 16 3 42% 76.56 0.0
02 21:15 SE 15 16.09 Fair CLR 16 3 42% 76.56 0.0
02 20:55 SE 15 16.09 Fair CLR 17 3 39% 76.58 0.0
02 20:35 SE 15 16.09 Fair CLR 17 2 37% 76.58 0.0
02 20:15 SE 17 16.09 Fair CLR 18 2 34% 76.53 0.0
02 19:55 S 15 16.09 Fair CLR 18 1 32% 76.5 0.0
02 19:35 S 19 16.09 NULL NULL 20 1 28% 76.5 0.0
02 19:15 S 22 G 43 16.09 Fair CLR 21 2 29% 76.5 0.0
02 18:55 S 20 G 28 16.09 Fair CLR 21 2 29% 76.53 0.0
02 18:35 S 30 G 37 16.09 Partly Cloudy SCT100 SCT120 22 1 25% 76.56 0.0
02 18:15 S 19 G 35 16.09 Mostly Cloudy SCT100 BKN120 22 1 25% 76.56 0.0
02 17:55 S 19 G 35 16.09 Partly Cloudy SCT100 SCT120 22 1 25% 76.56 0.0
02 17:35 S 28 G 41 16.09 Partly Cloudy SCT100 SCT120 22 1 25% 76.58 0.0
02 17:15 S 17 G 41 16.09 Thunderstorm in Vicinity CLR 22 0 23% 76.58 0.0
02 16:55 S 24 G 39 16.09 Fair CLR 23 1 23% 76.58 0.0
02 16:35 S 30 G 52 16.09 Partly Cloudy SCT085 SCT120 24 1 22% 25 76.61 0.0
02 16:15 S 24 G 52 16.09 Partly Cloudy SCT095 SCT120 25 1 21% 25 76.63 0.0
02 15:55 S 39 G 56 16.09 Partly Cloudy and Breezy SCT110 24 1 22% 25 76.58 0.0
02 15:30 SW 28 G 44 16.09 Partly Cloudy SCT110 23 3 27% 76.58 0.0
02 15:10 SW 24 G 35 16.09 Partly Cloudy SCT080 SCT110 23 5 31% 76.58 0.0
02 14:50 SW 26 G 52 16.09 Partly Cloudy SCT080 SCT120 21 3 31% 76.63 0.0
02 14:35 SW 31 G 41 16.09 Partly Cloudy SCT120 21 3 31% 76.66 0.0
02 14:15 S 46 G 54 16.09 Mostly Cloudy and Windy SCT080 SCT100 BKN120 22 3 29% 76.63 0.0
02 13:55 SW 30 G 39 16.09 Mostly Cloudy SCT080 SCT090 BKN120 23 2 25% 76.63 0.0
02 13:35 S 26 G 43 16.09 Partly Cloudy SCT080 SCT100 SCT120 23 2 25% 76.63 0.0
02 13:15 SW 41 G 50 16.09 Partly Cloudy and Breezy SCT070 SCT100 23 2 25% 76.63 0.0
02 12:55 S 28 G 48 16.09 Partly Cloudy SCT070 SCT090 SCT110 24 2 24% 25 76.63 0.0
02 12:35 SW 33 G 44 16.09 Partly Cloudy and Breezy SCT080 SCT100 23 2 25% 76.66 0.0
02 12:15 S 35 G 54 16.09 Partly Cloudy and Breezy SCT080 SCT100 24 2 24% 25 76.66 0.0
02 11:55 S 44 G 59 16.09 Partly Cloudy and Windy SCT070 24 2 24% 25 76.68 0.0
02 11:35 SW 39 G 54 16.09 Partly Cloudy and Breezy SCT065 SCT095 24 2 24% 25 76.68 0.0
02 11:15 SW 31 G 46 16.09 Mostly Cloudy SCT065 BKN095 23 3 27% 76.71 0.0
02 10:55 SW 37 G 44 16.09 Mostly Cloudy and Breezy SCT065 SCT075 BKN095 23 3 27% 76.71 0.0
02 10:35 SW 28 G 37 16.09 Mostly Cloudy SCT065 BKN085 21 4 33% 76.73 0.0
02 10:15 S 15 16.09 Mostly Cloudy SCT065 BKN080 BKN095 20 3 33% 76.73 0.0
02 09:55 SE 17 16.09 Thunderstorm in Vicinity SCT065 SCT080 BKN100 21 3 31% 76.73 0.0
02 09:35 SE 15 16.09 Fair CLR 21 3 31% 76.73 0.0
02 09:15 SE 9 16.09 NULL NULL 21 3 31% 76.73 0.0
02 08:55 E 13 16.09 NULL NULL 18 6 46% 76.76 0.0
02 08:35 SE 15 16.09 NULL NULL 17 5 45% 76.78 0.0
02 08:15 SE 15 16.09 NULL NULL 16 5 48% 76.78 0.0
02 07:55 SE 20 16.09 Partly Cloudy SCT075 15 5 51% 76.76 0.0
02 07:35 SE 17 16.09 Fair CLR 13 5 59% 76.76 0.0
02 07:15 SE 11 16.09 Partly Cloudy SCT080 11 5 67% 76.76 0.0
02 06:55 SE 11 16.09 Fair CLR 11 5 67% 76.76 0.0
02 06:35 S 17 16.09 Fair CLR 12 5 63% 76.73 0.0
02 06:15 S 17 16.09 Fair CLR 11 5 67% 76.71 0.0
02 05:55 S 17 16.09 Fair CLR 11 5 67% 76.71 0.0
02 05:35 S 17 16.09 Fair CLR 11 5 67% 76.71 0.0
02 05:15 S 19 16.09 Fair CLR 11 5 67% 76.71 0.0
02 04:55 S 19 16.09 Fair CLR 12 5 63% 76.71 0.0
02 04:35 S 19 16.09 Fair CLR 12 5 63% 76.73 0.0
02 04:15 S 20 16.09 Fair CLR 12 5 63% 76.73 0.0
02 03:55 S 17 16.09 Fair CLR 12 5 63% 76.73 0.0
02 03:35 S 17 16.09 Fair CLR 11 5 67% 76.76 0.0
02 03:15 S 17 0.00 NULL NULL 12 5 63% 76.73 0.0
01 18:15 Calm 0.00 NULL NULL 22 3 29% 0 0.0
01 17:55 SW 30 G 44 16.09 Fair CLR 22 3 29% 76.71 0.0
01 17:35 SW 35 G 44 16.09 Partly Cloudy and Breezy SCT095 23 4 29% 76.71 0.0
01 17:15 S 31 G 46 16.09 Partly Cloudy SCT095 23 4 29% 76.71 0.0
Date Time (mdt) Wind (kph) Vis. (km) Weather Sky Cond. Air Dwpt Max. Min. Relative Humidity Wind Chill (°C) Heat Index (°C) altimeter (cm) sea level (mb) 1 hr 3 hr 6 hr
6 hour
Temperature (ºC) Pressure Precipitation (cm)